sensor_id;sensor_type;location;lat;lon;timestamp;pressure;altitude;pressure_sealevel;temperature;humidity
77003;BME280;65939;50.060;14.288;2024-02-16T00:01:35;97432.22;;;8.28;100.00
77003;BME280;65939;50.060;14.288;2024-02-16T00:03:36;97444.56;;;8.26;100.00
77003;BME280;65939;50.060;14.288;2024-02-16T00:05:37;97437.72;;;8.25;100.00
77003;BME280;65939;50.060;14.288;2024-02-16T00:07:39;97441.28;;;8.24;100.00
77003;BME280;65939;50.060;14.288;2024-02-16T00:09:40;97447.44;;;8.23;100.00
77003;BME280;65939;50.060;14.288;2024-02-16T00:11:40;97444.03;;;8.22;100.00
77003;BME280;65939;50.060;14.288;2024-02-16T00:13:41;97447.72;;;8.20;100.00
77003;BME280;65939;50.060;14.288;2024-02-16T00:15:42;97453.19;;;8.16;100.00
77003;BME280;65939;50.060;14.288;2024-02-16T00:17:42;97449.75;;;8.16;100.00
77003;BME280;65939;50.060;14.288;2024-02-16T00:19:43;97450.03;;;8.13;100.00
77003;BME280;65939;50.060;14.288;2024-02-16T00:21:44;97448.50;;;8.10;100.00
77003;BME280;65939;50.060;14.288;2024-02-16T00:23:45;97447.03;;;8.08;100.00
77003;BME280;65939;50.060;14.288;2024-02-16T00:25:45;97443.72;;;8.06;100.00
77003;BME280;65939;50.060;14.288;2024-02-16T00:27:46;97439.63;;;8.03;100.00
77003;BME280;65939;50.060;14.288;2024-02-16T00:29:47;97439.78;;;8.02;100.00
77003;BME280;65939;50.060;14.288;2024-02-16T00:31:47;97434.69;;;8.00;100.00
77003;BME280;65939;50.060;14.288;2024-02-16T00:33:48;97429.63;;;7.99;100.00
77003;BME280;65939;50.060;14.288;2024-02-16T00:35:48;97435.81;;;7.98;100.00
77003;BME280;65939;50.060;14.288;2024-02-16T00:37:50;97428.13;;;7.96;100.00
77003;BME280;65939;50.060;14.288;2024-02-16T00:39:50;97422.25;;;7.94;100.00
77003;BME280;65939;50.060;14.288;2024-02-16T00:41:52;97418.84;;;7.94;100.00
77003;BME280;65939;50.060;14.288;2024-02-16T00:43:53;97424.16;;;7.92;100.00
77003;BME280;65939;50.060;14.288;2024-02-16T00:45:54;97422.63;;;7.89;100.00
77003;BME280;65939;50.060;14.288;2024-02-16T00:47:56;97411.69;;;7.86;100.00
77003;BME280;65939;50.060;14.288;2024-02-16T00:49:58;97416.88;;;7.86;100.00
77003;BME280;65939;50.060;14.288;2024-02-16T00:51:59;97411.97;;;7.83;100.00
77003;BME280;65939;50.060;14.288;2024-02-16T00:53:59;97409.50;;;7.81;100.00
77003;BME280;65939;50.060;14.288;2024-02-16T00:56:00;97407.06;;;7.80;100.00
77003;BME280;65939;50.060;14.288;2024-02-16T00:58:01;97408.94;;;7.78;100.00
77003;BME280;65939;50.060;14.288;2024-02-16T01:00:02;97402.13;;;7.77;100.00
77003;BME280;65939;50.060;14.288;2024-02-16T01:02:08;97401.41;;;7.75;100.00
77003;BME280;65939;50.060;14.288;2024-02-16T01:04:10;97403.22;;;7.74;100.00
77003;BME280;65939;50.060;14.288;2024-02-16T01:06:11;97400.75;;;7.73;100.00
77003;BME280;65939;50.060;14.288;2024-02-16T01:08:12;97400.88;;;7.71;100.00
77003;BME280;65939;50.060;14.288;2024-02-16T01:10:13;97400.19;;;7.69;100.00
77003;BME280;65939;50.060;14.288;2024-02-16T01:12:13;97402.09;;;7.67;100.00
77003;BME280;65939;50.060;14.288;2024-02-16T01:14:14;97400.47;;;7.66;100.00
77003;BME280;65939;50.060;14.288;2024-02-16T01:16:15;97401.44;;;7.65;100.00
77003;BME280;65939;50.060;14.288;2024-02-16T01:18:18;97405.78;;;7.64;100.00
77003;BME280;65939;50.060;14.288;2024-02-16T01:20:18;97406.75;;;7.63;100.00
77003;BME280;65939;50.060;14.288;2024-02-16T01:22:20;97405.13;;;7.62;100.00
77003;BME280;65939;50.060;14.288;2024-02-16T01:24:21;97404.41;;;7.60;100.00
77003;BME280;65939;50.060;14.288;2024-02-16T01:26:22;97403.59;;;7.60;100.00
77003;BME280;65939;50.060;14.288;2024-02-16T01:28:22;97408.94;;;7.58;100.00
77003;BME280;65939;50.060;14.288;2024-02-16T01:30:23;97406.59;;;7.55;100.00
77003;BME280;65939;50.060;14.288;2024-02-16T01:32:24;97406.59;;;7.55;100.00
77003;BME280;65939;50.060;14.288;2024-02-16T01:34:24;97406.59;;;7.55;100.00
77003;BME280;65939;50.060;14.288;2024-02-16T01:36:25;97415.47;;;7.53;100.00
77003;BME280;65939;50.060;14.288;2024-02-16T01:38:26;97403.44;;;7.52;100.00
77003;BME280;65939;50.060;14.288;2024-02-16T01:40:27;97400.84;;;7.52;100.00
77003;BME280;65939;50.060;14.288;2024-02-16T01:42:28;97404.53;;;7.49;100.00
77003;BME280;65939;50.060;14.288;2024-02-16T01:44:28;97404.53;;;7.49;100.00
77003;BME280;65939;50.060;14.288;2024-02-16T01:46:29;97408.09;;;7.48;100.00
77003;BME280;65939;50.060;14.288;2024-02-16T01:48:30;97410.69;;;7.48;100.00
77003;BME280;65939;50.060;14.288;2024-02-16T01:50:30;97406.47;;;7.47;100.00
77003;BME280;65939;50.060;14.288;2024-02-16T01:52:33;97409.16;;;7.46;100.00
77003;BME280;65939;50.060;14.288;2024-02-16T01:54:37;97404.13;;;7.44;100.00
77003;BME280;65939;50.060;14.288;2024-02-16T01:56:38;97408.50;;;7.43;100.00
77003;BME280;65939;50.060;14.288;2024-02-16T01:58:39;97405.34;;;7.40;100.00
77003;BME280;65939;50.060;14.288;2024-02-16T02:00:40;97409.69;;;7.39;100.00
77003;BME280;65939;50.060;14.288;2024-02-16T02:02:45;97402.03;;;7.38;100.00
77003;BME280;65939;50.060;14.288;2024-02-16T02:04:49;97408.31;;;7.35;100.00
77003;BME280;65939;50.060;14.288;2024-02-16T02:06:50;97401.63;;;7.33;100.00
77003;BME280;65939;50.060;14.288;2024-02-16T02:08:51;97401.03;;;7.29;100.00
77003;BME280;65939;50.060;14.288;2024-02-16T02:10:52;97401.19;;;7.28;100.00
77003;BME280;65939;50.060;14.288;2024-02-16T02:12:52;97395.28;;;7.26;100.00
77003;BME280;65939;50.060;14.288;2024-02-16T02:14:53;97394.63;;;7.24;100.00
77003;BME280;65939;50.060;14.288;2024-02-16T02:16:54;97395.03;;;7.19;100.00
77003;BME280;65939;50.060;14.288;2024-02-16T02:18:55;97399.38;;;7.18;100.00
77003;BME280;65939;50.060;14.288;2024-02-16T02:20:56;97399.53;;;7.17;100.00
77003;BME280;65939;50.060;14.288;2024-02-16T02:22:56;97390.22;;;7.14;100.00
77003;BME280;65939;50.060;14.288;2024-02-16T02:24:59;97386.13;;;7.12;100.00
77003;BME280;65939;50.060;14.288;2024-02-16T02:27:00;97384.47;;;7.11;100.00
77003;BME280;65939;50.060;14.288;2024-02-16T02:29:01;97375.19;;;7.08;100.00
77003;BME280;65939;50.060;14.288;2024-02-16T02:31:03;97369.28;;;7.06;100.00
77003;BME280;65939;50.060;14.288;2024-02-16T02:33:04;97374.63;;;7.05;100.00
77003;BME280;65939;50.060;14.288;2024-02-16T02:35:05;97368.72;;;7.03;100.00
77003;BME280;65939;50.060;14.288;2024-02-16T02:37:06;97365.31;;;7.02;100.00
77003;BME280;65939;50.060;14.288;2024-02-16T02:39:07;97366.28;;;7.01;100.00
77003;BME280;65939;50.060;14.288;2024-02-16T02:41:07;97350.00;;;6.99;100.00
77003;BME280;65939;50.060;14.288;2024-02-16T02:43:08;97359.56;;;6.99;100.00
77003;BME280;65939;50.060;14.288;2024-02-16T02:45:09;97355.34;;;6.98;100.00
77003;BME280;65939;50.060;14.288;2024-02-16T02:47:10;97357.09;;;6.97;100.00
77003;BME280;65939;50.060;14.288;2024-02-16T02:49:10;97345.06;;;6.96;100.00
77003;BME280;65939;50.060;14.288;2024-02-16T02:51:11;97349.44;;;6.95;100.00
77003;BME280;65939;50.060;14.288;2024-02-16T02:53:12;97350.41;;;6.94;100.00
77003;BME280;65939;50.060;14.288;2024-02-16T02:55:13;97348.63;;;6.95;100.00
77003;BME280;65939;50.060;14.288;2024-02-16T02:57:13;97352.84;;;6.96;100.00
77003;BME280;65939;50.060;14.288;2024-02-16T02:59:14;97358.03;;;6.96;100.00
77003;BME280;65939;50.060;14.288;2024-02-16T03:01:15;97355.44;;;6.96;100.00
77003;BME280;65939;50.060;14.288;2024-02-16T03:03:15;97353.00;;;6.94;100.00
77003;BME280;65939;50.060;14.288;2024-02-16T03:05:16;97356.41;;;6.95;100.00
77003;BME280;65939;50.060;14.288;2024-02-16T03:07:18;97349.69;;;6.92;100.00
77003;BME280;65939;50.060;14.288;2024-02-16T03:09:19;97343.69;;;6.92;100.00
77003;BME280;65939;50.060;14.288;2024-02-16T03:11:19;97346.53;;;6.89;100.00
77003;BME280;65939;50.060;14.288;2024-02-16T03:13:20;97350.09;;;6.88;99.69
77003;BME280;65939;50.060;14.288;2024-02-16T03:15:21;97347.75;;;6.85;100.00
77003;BME280;65939;50.060;14.288;2024-02-16T03:17:21;97356.50;;;6.84;100.00
77003;BME280;65939;50.060;14.288;2024-02-16T03:19:22;97357.31;;;6.84;100.00
77003;BME280;65939;50.060;14.288;2024-02-16T03:21:23;97356.50;;;6.84;100.00
77003;BME280;65939;50.060;14.288;2024-02-16T03:23:24;97356.50;;;6.84;100.00
77003;BME280;65939;50.060;14.288;2024-02-16T03:25:25;97359.09;;;6.84;100.00
77003;BME280;65939;50.060;14.288;2024-02-16T03:27:26;97362.63;;;6.83;100.00
77003;BME280;65939;50.060;14.288;2024-02-16T03:29:27;97367.25;;;6.79;99.89
77003;BME280;65939;50.060;14.288;2024-02-16T03:31:28;97371.78;;;6.77;98.88
77003;BME280;65939;50.060;14.288;2024-02-16T03:33:30;97365.19;;;6.73;99.14
77003;BME280;65939;50.060;14.288;2024-02-16T03:35:31;97366.03;;;6.74;99.00
77003;BME280;65939;50.060;14.288;2024-02-16T03:37:32;97361.09;;;6.70;98.41
77003;BME280;65939;50.060;14.288;2024-02-16T03:39:33;97356.16;;;6.67;97.61
77003;BME280;65939;50.060;14.288;2024-02-16T03:41:33;97350.41;;;6.64;97.99
77003;BME280;65939;50.060;14.288;2024-02-16T03:43:34;97351.47;;;6.61;98.14
77003;BME280;65939;50.060;14.288;2024-02-16T03:45:35;97347.38;;;6.59;98.48
77003;BME280;65939;50.060;14.288;2024-02-16T03:47:36;97357.75;;;6.59;98.79
77003;BME280;65939;50.060;14.288;2024-02-16T03:49:37;97355.28;;;6.57;99.28
77003;BME280;65939;50.060;14.288;2024-02-16T03:51:38;97352.81;;;6.56;99.09
77003;BME280;65939;50.060;14.288;2024-02-16T03:53:38;97355.41;;;6.56;100.00
77003;BME280;65939;50.060;14.288;2024-02-16T03:55:39;97356.38;;;6.55;100.00
77003;BME280;65939;50.060;14.288;2024-02-16T03:57:40;97355.53;;;6.54;100.00
77003;BME280;65939;50.060;14.288;2024-02-16T03:59:45;97350.34;;;6.54;100.00
77003;BME280;65939;50.060;14.288;2024-02-16T04:01:46;97346.13;;;6.53;99.47
77003;BME280;65939;50.060;14.288;2024-02-16T04:03:46;97353.06;;;6.53;99.93
77003;BME280;65939;50.060;14.288;2024-02-16T04:05:47;97352.25;;;6.52;100.00
77003;BME280;65939;50.060;14.288;2024-02-16T04:07:48;97359.09;;;6.53;100.00
77003;BME280;65939;50.060;14.288;2024-02-16T04:09:50;97358.28;;;6.53;100.00
77003;BME280;65939;50.060;14.288;2024-02-16T04:11:50;97361.69;;;6.53;99.76
77003;BME280;65939;50.060;14.288;2024-02-16T04:13:52;97360.84;;;6.53;99.93
77003;BME280;65939;50.060;14.288;2024-02-16T04:15:52;97357.44;;;6.52;99.42
77003;BME280;65939;50.060;14.288;2024-02-16T04:17:53;97370.28;;;6.54;100.00
77003;BME280;65939;50.060;14.288;2024-02-16T04:19:53;97374.66;;;6.53;99.96
77003;BME280;65939;50.060;14.288;2024-02-16T04:21:55;97382.44;;;6.53;99.74
77003;BME280;65939;50.060;14.288;2024-02-16T04:23:55;97373.84;;;6.53;99.13
77003;BME280;65939;50.060;14.288;2024-02-16T04:25:56;97370.41;;;6.52;99.50
77003;BME280;65939;50.060;14.288;2024-02-16T04:27:57;97371.38;;;6.51;98.83
77003;BME280;65939;50.060;14.288;2024-02-16T04:29:57;97375.72;;;6.51;99.34
77003;BME280;65939;50.060;14.288;2024-02-16T04:31:58;97379.28;;;6.50;99.22
77003;BME280;65939;50.060;14.288;2024-02-16T04:33:59;97367.38;;;6.47;99.27
77003;BME280;65939;50.060;14.288;2024-02-16T04:36:00;97371.88;;;6.45;98.60
77003;BME280;65939;50.060;14.288;2024-02-16T04:38:00;97377.88;;;6.45;99.24
77003;BME280;65939;50.060;14.288;2024-02-16T04:40:01;97371.06;;;6.44;98.45
77003;BME280;65939;50.060;14.288;2024-02-16T04:42:04;97375.28;;;6.45;98.64
77003;BME280;65939;50.060;14.288;2024-02-16T04:44:05;97372.84;;;6.44;98.48
77003;BME280;65939;50.060;14.288;2024-02-16T04:46:05;97379.78;;;6.43;97.67
77003;BME280;65939;50.060;14.288;2024-02-16T04:48:06;97384.97;;;6.43;97.98
77003;BME280;65939;50.060;14.288;2024-02-16T04:50:08;97383.22;;;6.44;97.53
77003;BME280;65939;50.060;14.288;2024-02-16T04:52:10;97381.53;;;6.43;96.91
77003;BME280;65939;50.060;14.288;2024-02-16T04:54:10;97379.91;;;6.42;96.59
77003;BME280;65939;50.060;14.288;2024-02-16T04:56:11;97386.06;;;6.41;97.49
77003;BME280;65939;50.060;14.288;2024-02-16T04:58:12;97370.75;;;6.38;96.49
77003;BME280;65939;50.060;14.288;2024-02-16T05:00:13;97367.44;;;6.36;97.19
77003;BME280;65939;50.060;14.288;2024-02-16T05:02:14;97365.00;;;6.34;97.39
77003;BME280;65939;50.060;14.288;2024-02-16T05:04:15;97364.28;;;6.32;97.17
77003;BME280;65939;50.060;14.288;2024-02-16T05:06:19;97367.84;;;6.31;97.78
77003;BME280;65939;50.060;14.288;2024-02-16T05:08:22;97362.78;;;6.30;97.62
77003;BME280;65939;50.060;14.288;2024-02-16T05:10:23;97356.75;;;6.29;96.87
77003;BME280;65939;50.060;14.288;2024-02-16T05:12:25;97362.09;;;6.28;97.58
77003;BME280;65939;50.060;14.288;2024-02-16T05:14:25;97355.38;;;6.25;97.76
77003;BME280;65939;50.060;14.288;2024-02-16T05:16:27;97355.50;;;6.23;97.05
77003;BME280;65939;50.060;14.288;2024-02-16T05:18:27;97348.81;;;6.21;97.72
77003;BME280;65939;50.060;14.288;2024-02-16T05:20:28;97353.16;;;6.20;97.58
77003;BME280;65939;50.060;14.288;2024-02-16T05:22:29;97343.63;;;6.21;97.94
77003;BME280;65939;50.060;14.288;2024-02-16T05:24:30;97354.00;;;6.21;98.16
77003;BME280;65939;50.060;14.288;2024-02-16T05:26:30;97346.22;;;6.21;97.67
77003;BME280;65939;50.060;14.288;2024-02-16T05:28:31;97347.03;;;6.21;97.64
77003;BME280;65939;50.060;14.288;2024-02-16T05:30:31;97350.31;;;6.23;97.84
77003;BME280;65939;50.060;14.288;2024-02-16T05:32:33;97354.56;;;6.24;98.66
77003;BME280;65939;50.060;14.288;2024-02-16T05:34:34;97359.75;;;6.24;99.20
77003;BME280;65939;50.060;14.288;2024-02-16T05:36:37;97355.38;;;6.25;98.80
77003;BME280;65939;50.060;14.288;2024-02-16T05:38:38;97357.84;;;6.27;99.41
77003;BME280;65939;50.060;14.288;2024-02-16T05:40:43;97357.72;;;6.28;99.83
77003;BME280;65939;50.060;14.288;2024-02-16T05:42:54;97352.41;;;6.30;98.90
77003;BME280;65939;50.060;14.288;2024-02-16T05:44:58;97357.59;;;6.30;99.25
77003;BME280;65939;50.060;14.288;2024-02-16T05:46:58;97366.19;;;6.30;99.22
77003;BME280;65939;50.060;14.288;2024-02-16T05:48:59;97363.59;;;6.30;99.01
77003;BME280;65939;50.060;14.288;2024-02-16T05:51:04;97364.44;;;6.31;98.82
77003;BME280;65939;50.060;14.288;2024-02-16T05:53:06;97370.56;;;6.30;97.94
77003;BME280;65939;50.060;14.288;2024-02-16T05:55:08;97370.69;;;6.28;98.72
77003;BME280;65939;50.060;14.288;2024-02-16T05:57:09;97379.28;;;6.29;98.89
77003;BME280;65939;50.060;14.288;2024-02-16T05:59:10;97369.84;;;6.28;98.34
77003;BME280;65939;50.060;14.288;2024-02-16T06:01:12;97380.09;;;6.29;98.52
77003;BME280;65939;50.060;14.288;2024-02-16T06:03:14;97380.09;;;6.29;98.17
77003;BME280;65939;50.060;14.288;2024-02-16T06:05:16;97381.88;;;6.29;97.36
77003;BME280;65939;50.060;14.288;2024-02-16T06:07:16;97384.47;;;6.29;97.37
77003;BME280;65939;50.060;14.288;2024-02-16T06:09:17;97383.63;;;6.28;98.23
77003;BME280;65939;50.060;14.288;2024-02-16T06:11:17;97390.34;;;6.31;97.82
77003;BME280;65939;50.060;14.288;2024-02-16T06:13:18;97388.56;;;6.31;98.16
77003;BME280;65939;50.060;14.288;2024-02-16T06:15:20;97387.50;;;6.34;97.58
77003;BME280;65939;50.060;14.288;2024-02-16T06:17:20;97389.16;;;6.35;97.88
77003;BME280;65939;50.060;14.288;2024-02-16T06:19:21;97389.84;;;6.37;96.66
77003;BME280;65939;50.060;14.288;2024-02-16T06:21:21;97395.84;;;6.37;96.93
77003;BME280;65939;50.060;14.288;2024-02-16T06:23:23;97393.38;;;6.36;97.66
77003;BME280;65939;50.060;14.288;2024-02-16T06:25:24;97398.56;;;6.36;96.92
77003;BME280;65939;50.060;14.288;2024-02-16T06:27:25;97392.56;;;6.35;97.07
77003;BME280;65939;50.060;14.288;2024-02-16T06:29:26;97393.38;;;6.36;97.23
77003;BME280;65939;50.060;14.288;2024-02-16T06:31:26;97386.56;;;6.35;97.03
77003;BME280;65939;50.060;14.288;2024-02-16T06:33:28;97387.25;;;6.37;97.94
77003;BME280;65939;50.060;14.288;2024-02-16T06:35:29;97393.38;;;6.36;97.58
77003;BME280;65939;50.060;14.288;2024-02-16T06:37:30;97397.63;;;6.37;97.44
77003;BME280;65939;50.060;14.288;2024-02-16T06:39:32;97405.13;;;6.40;97.95
77003;BME280;65939;50.060;14.288;2024-02-16T06:41:33;97410.06;;;6.43;97.65
77003;BME280;65939;50.060;14.288;2024-02-16T06:43:33;97415.00;;;6.46;97.70
77003;BME280;65939;50.060;14.288;2024-02-16T06:45:34;97410.63;;;6.46;97.35
77003;BME280;65939;50.060;14.288;2024-02-16T06:47:34;97413.94;;;6.48;97.46
77003;BME280;65939;50.060;14.288;2024-02-16T06:49:35;97414.75;;;6.49;97.05
77003;BME280;65939;50.060;14.288;2024-02-16T06:51:36;97412.97;;;6.50;97.56
77003;BME280;65939;50.060;14.288;2024-02-16T06:53:37;97409.56;;;6.49;96.97
77003;BME280;65939;50.060;14.288;2024-02-16T06:55:38;97412.31;;;6.47;97.83
77003;BME280;65939;50.060;14.288;2024-02-16T06:57:38;97409.56;;;6.49;97.17
77003;BME280;65939;50.060;14.288;2024-02-16T06:59:39;97417.22;;;6.51;97.70
77003;BME280;65939;50.060;14.288;2024-02-16T07:01:40;97419.56;;;6.54;98.17
77003;BME280;65939;50.060;14.288;2024-02-16T07:03:41;97423.69;;;6.56;97.99
77003;BME280;65939;50.060;14.288;2024-02-16T07:05:42;97419.19;;;6.58;98.21
77003;BME280;65939;50.060;14.288;2024-02-16T07:07:42;97421.66;;;6.60;98.11
77003;BME280;65939;50.060;14.288;2024-02-16T07:09:43;97427.66;;;6.60;98.28
77003;BME280;65939;50.060;14.288;2024-02-16T07:11:43;97431.88;;;6.61;98.19
77003;BME280;65939;50.060;14.288;2024-02-16T07:13:46;97426.69;;;6.61;98.24
77003;BME280;65939;50.060;14.288;2024-02-16T07:15:47;97432.59;;;6.63;98.48
77003;BME280;65939;50.060;14.288;2024-02-16T07:17:48;97439.41;;;6.64;98.08
77003;BME280;65939;50.060;14.288;2024-02-16T07:19:48;97446.28;;;6.65;98.90
77003;BME280;65939;50.060;14.288;2024-02-16T07:21:49;97454.75;;;6.67;97.83
77003;BME280;65939;50.060;14.288;2024-02-16T07:23:50;97455.56;;;6.68;98.23
77003;BME280;65939;50.060;14.288;2024-02-16T07:25:52;97449.28;;;6.70;97.92
77003;BME280;65939;50.060;14.288;2024-02-16T07:27:56;97448.22;;;6.73;97.92
77003;BME280;65939;50.060;14.288;2024-02-16T07:29:57;97442.78;;;6.76;98.49
77003;BME280;65939;50.060;14.288;2024-02-16T07:31:57;97429.66;;;6.78;97.61
77003;BME280;65939;50.060;14.288;2024-02-16T07:33:58;97420.38;;;6.75;97.89
77003;BME280;65939;50.060;14.288;2024-02-16T07:35:59;97421.47;;;6.72;98.11
77003;BME280;65939;50.060;14.288;2024-02-16T07:38:00;97432.09;;;6.69;97.87
77003;BME280;65939;50.060;14.288;2024-02-16T07:40:01;97439.16;;;6.67;96.95
77003;BME280;65939;50.060;14.288;2024-02-16T07:42:03;97438.34;;;6.67;97.78
77003;BME280;65939;50.060;14.288;2024-02-16T07:44:04;97447.66;;;6.69;97.38
77003;BME280;65939;50.060;14.288;2024-02-16T07:46:05;97444.09;;;6.70;97.91
77003;BME280;65939;50.060;14.288;2024-02-16T07:48:06;97445.75;;;6.71;98.81
77003;BME280;65939;50.060;14.288;2024-02-16T07:50:08;97453.28;;;6.75;98.04
77003;BME280;65939;50.060;14.288;2024-02-16T07:52:09;97452.78;;;6.81;99.17
77003;BME280;65939;50.060;14.288;2024-02-16T07:54:10;97445.16;;;6.89;98.14
77003;BME280;65939;50.060;14.288;2024-02-16T07:56:10;97443.69;;;6.96;98.34
77003;BME280;65939;50.060;14.288;2024-02-16T07:58:11;97442.38;;;7.02;98.78
77003;BME280;65939;50.060;14.288;2024-02-16T08:00:13;97434.19;;;7.06;98.94
77003;BME280;65939;50.060;14.288;2024-02-16T08:02:16;97437.09;;;7.13;98.47
77003;BME280;65939;50.060;14.288;2024-02-16T08:04:18;97434.22;;;7.16;98.33
77003;BME280;65939;50.060;14.288;2024-02-16T08:06:18;97433.00;;;7.20;97.46
77003;BME280;65939;50.060;14.288;2024-02-16T08:08:24;97419.78;;;7.23;97.48
77003;BME280;65939;50.060;14.288;2024-02-16T08:10:24;97427.88;;;7.30;97.56
77003;BME280;65939;50.060;14.288;2024-02-16T08:12:26;97434.03;;;7.38;98.22
77003;BME280;65939;50.060;14.288;2024-02-16T08:14:28;97439.94;;;7.50;98.27
77003;BME280;65939;50.060;14.288;2024-02-16T08:16:29;97439.00;;;7.61;98.39
77003;BME280;65939;50.060;14.288;2024-02-16T08:18:30;97440.56;;;7.73;98.27
77003;BME280;65939;50.060;14.288;2024-02-16T08:20:31;97437.97;;;7.83;97.77
77003;BME280;65939;50.060;14.288;2024-02-16T08:22:32;97438.78;;;7.93;98.02
77003;BME280;65939;50.060;14.288;2024-02-16T08:24:36;97437.72;;;8.05;97.78
77003;BME280;65939;50.060;14.288;2024-02-16T08:26:37;97434.16;;;8.16;96.81
77003;BME280;65939;50.060;14.288;2024-02-16T08:28:38;97437.97;;;8.22;96.06
77003;BME280;65939;50.060;14.288;2024-02-16T08:30:39;97431.56;;;8.26;96.48
77003;BME280;65939;50.060;14.288;2024-02-16T08:32:44;97427.56;;;8.31;96.21
77003;BME280;65939;50.060;14.288;2024-02-16T08:34:45;97428.66;;;8.29;95.31
77003;BME280;65939;50.060;14.288;2024-02-16T08:36:46;97427.03;;;8.28;95.10
77003;BME280;65939;50.060;14.288;2024-02-16T08:38:47;97426.50;;;8.24;94.92
77003;BME280;65939;50.060;14.288;2024-02-16T08:40:49;97431.03;;;8.22;94.65
77003;BME280;65939;50.060;14.288;2024-02-16T08:42:52;97429.50;;;8.20;95.26
77003;BME280;65939;50.060;14.288;2024-02-16T08:44:53;97424.44;;;8.18;94.78
77003;BME280;65939;50.060;14.288;2024-02-16T08:46:53;97423.34;;;8.21;94.69
77003;BME280;65939;50.060;14.288;2024-02-16T08:48:55;97424.84;;;8.23;94.77
77003;BME280;65939;50.060;14.288;2024-02-16T08:50:56;97432.94;;;8.30;95.10
77003;BME280;65939;50.060;14.288;2024-02-16T08:52:57;97439.34;;;8.35;95.00
77003;BME280;65939;50.060;14.288;2024-02-16T08:54:58;97437.31;;;8.39;94.61
77003;BME280;65939;50.060;14.288;2024-02-16T08:56:58;97443.91;;;8.43;95.06
77003;BME280;65939;50.060;14.288;2024-02-16T08:59:00;97436.50;;;8.48;95.20
77003;BME280;65939;50.060;14.288;2024-02-16T09:01:00;97435.53;;;8.49;94.11
77003;BME280;65939;50.060;14.288;2024-02-16T09:03:02;97435.53;;;8.49;94.58
77003;BME280;65939;50.060;14.288;2024-02-16T09:05:06;97445.28;;;8.47;94.28
77003;BME280;65939;50.060;14.288;2024-02-16T09:07:10;97446.75;;;8.50;94.13
77003;BME280;65939;50.060;14.288;2024-02-16T09:09:11;97453.19;;;8.55;94.42
77003;BME280;65939;50.060;14.288;2024-02-16T09:11:11;97450.16;;;8.60;93.69
77003;BME280;65939;50.060;14.288;2024-02-16T09:13:12;97450.72;;;8.63;94.28
77003;BME280;65939;50.060;14.288;2024-02-16T09:15:13;97450.44;;;8.67;93.89
77003;BME280;65939;50.060;14.288;2024-02-16T09:17:13;97452.78;;;8.70;93.12
77003;BME280;65939;50.060;14.288;2024-02-16T09:19:14;97454.94;;;8.74;93.28
77003;BME280;65939;50.060;14.288;2024-02-16T09:21:15;97453.84;;;8.77;93.52
77003;BME280;65939;50.060;14.288;2024-02-16T09:23:16;97450.00;;;8.81;93.60
77003;BME280;65939;50.060;14.288;2024-02-16T09:25:16;97454.66;;;8.87;93.61
77003;BME280;65939;50.060;14.288;2024-02-16T09:27:17;97459.31;;;8.93;93.97
77003;BME280;65939;50.060;14.288;2024-02-16T09:29:19;97460.38;;;9.00;93.65
77003;BME280;65939;50.060;14.288;2024-02-16T09:31:20;97461.31;;;9.09;93.22
77003;BME280;65939;50.060;14.288;2024-02-16T09:33:22;97462.91;;;9.20;93.42
77003;BME280;65939;50.060;14.288;2024-02-16T09:35:23;97467.13;;;9.30;93.64
77003;BME280;65939;50.060;14.288;2024-02-16T09:37:23;97456.66;;;9.40;92.74
77003;BME280;65939;50.060;14.288;2024-02-16T09:39:24;97455.66;;;9.51;92.99
77003;BME280;65939;50.060;14.288;2024-02-16T09:41:28;97454.94;;;9.58;92.18
77003;BME280;65939;50.060;14.288;2024-02-16T09:43:29;97456.97;;;9.65;91.76
77003;BME280;65939;50.060;14.288;2024-02-16T09:45:32;97456.81;;;9.66;91.34
77003;BME280;65939;50.060;14.288;2024-02-16T09:47:34;97454.06;;;9.68;90.62
77003;BME280;65939;50.060;14.288;2024-02-16T09:49:35;97452.56;;;9.65;90.53
77003;BME280;65939;50.060;14.288;2024-02-16T09:51:37;97453.53;;;9.64;91.02
77003;BME280;65939;50.060;14.288;2024-02-16T09:53:37;97451.47;;;9.68;90.80
77003;BME280;65939;50.060;14.288;2024-02-16T09:55:39;97452.81;;;9.72;90.42
77003;BME280;65939;50.060;14.288;2024-02-16T09:57:40;97444.69;;;9.75;90.59
77003;BME280;65939;50.060;14.288;2024-02-16T09:59:40;97462.09;;;9.74;90.11
77003;BME280;65939;50.060;14.288;2024-02-16T10:01:41;97457.75;;;9.75;90.26
77003;BME280;65939;50.060;14.288;2024-02-16T10:03:43;97451.53;;;9.76;90.21
77003;BME280;65939;50.060;14.288;2024-02-16T10:05:43;97454.81;;;9.78;90.18
77003;BME280;65939;50.060;14.288;2024-02-16T10:07:44;97461.41;;;9.82;89.84
77003;BME280;65939;50.060;14.288;2024-02-16T10:09:45;97452.59;;;9.83;89.58
77003;BME280;65939;50.060;14.288;2024-02-16T10:11:46;97459.16;;;9.87;90.32
77003;BME280;65939;50.060;14.288;2024-02-16T10:16:10;97457.03;;;10.00;89.23
77003;BME280;65939;50.060;14.288;2024-02-16T10:18:12;97459.03;;;10.06;89.97
77003;BME280;65939;50.060;14.288;2024-02-16T10:20:18;97456.50;;;10.15;88.92
77003;BME280;65939;50.060;14.288;2024-02-16T10:22:18;97466.31;;;10.21;88.97
77003;BME280;65939;50.060;14.288;2024-02-16T10:24:22;97465.66;;;10.28;88.38
77003;BME280;65939;50.060;14.288;2024-02-16T10:26:23;97463.75;;;10.39;89.32
77003;BME280;65939;50.060;14.288;2024-02-16T10:28:24;97451.75;;;10.46;88.89
77003;BME280;65939;50.060;14.288;2024-02-16T10:30:30;97445.91;;;10.52;88.27
77003;BME280;65939;50.060;14.288;2024-02-16T10:32:33;97447.13;;;10.58;87.55
77003;BME280;65939;50.060;14.288;2024-02-16T10:34:37;97444.03;;;10.62;86.94
77003;BME280;65939;50.060;14.288;2024-02-16T10:36:39;97444.56;;;10.66;87.53
77003;BME280;65939;50.060;14.288;2024-02-16T10:38:44;97448.88;;;10.75;86.92
77003;BME280;65939;50.060;14.288;2024-02-16T10:40:47;97448.13;;;10.83;86.83